createdAt,value
2023-01-11T00:00:46.695Z,7.89
2023-01-11T00:03:14.916Z,7.85
2023-01-11T00:05:43.488Z,7.81
2023-01-11T00:08:10.780Z,7.86
2023-01-11T00:10:37.568Z,7.89
2023-01-11T00:13:04.896Z,7.96
2023-01-11T00:15:31.386Z,7.95
2023-01-11T00:17:57.906Z,7.98
2023-01-11T00:20:25.311Z,8.04
2023-01-11T00:22:52.199Z,8.04
2023-01-11T00:25:18.719Z,8.05
2023-01-11T00:27:47.165Z,8.07
2023-01-11T00:30:14.109Z,8.05
2023-01-11T00:32:40.731Z,8.13
2023-01-11T00:35:07.926Z,8.01
2023-01-11T00:37:34.424Z,8.10
2023-01-11T00:40:00.875Z,8.08
2023-01-11T00:42:46.158Z,8.04
2023-01-11T00:45:31.005Z,8.17
2023-01-11T00:47:57.554Z,8.08
2023-01-11T00:50:25.427Z,8.19
2023-01-11T00:52:52.040Z,8.13
2023-01-11T00:55:19.019Z,8.20
2023-01-11T00:57:45.463Z,8.16
2023-01-11T01:00:12.872Z,8.22
2023-01-11T01:02:39.864Z,8.27
2023-01-11T01:05:06.962Z,8.28
2023-01-11T01:07:33.578Z,8.29
2023-01-11T01:10:00.029Z,8.20
2023-01-11T01:12:44.720Z,8.25
2023-01-11T01:15:11.501Z,8.27
2023-01-11T01:17:38.216Z,8.26
2023-01-11T01:20:05.977Z,8.27
2023-01-11T01:22:32.472Z,8.36
2023-01-11T01:24:58.990Z,8.38
2023-01-11T01:27:25.676Z,8.39
2023-01-11T01:29:52.175Z,8.42
2023-01-11T01:32:18.605Z,8.42
2023-01-11T01:34:45.063Z,8.46
2023-01-11T01:37:11.659Z,8.45
2023-01-11T01:39:38.320Z,8.50
2023-01-11T01:42:06.021Z,8.46
2023-01-11T01:44:54.278Z,8.54
2023-01-11T01:47:29.365Z,8.52
2023-01-11T01:49:59.093Z,8.58
2023-01-11T01:52:29.146Z,8.64
2023-01-11T01:55:01.441Z,8.65
2023-01-11T01:57:32.024Z,8.70
2023-01-11T02:00:02.872Z,8.74
2023-01-11T02:02:29.379Z,8.75
2023-01-11T02:04:57.457Z,8.85
2023-01-11T02:07:31.749Z,8.82
2023-01-11T02:10:04.643Z,8.79
2023-01-11T02:12:39.037Z,8.74
2023-01-11T02:15:07.199Z,8.86
2023-01-11T02:17:33.601Z,8.86
2023-01-11T02:20:12.423Z,8.88
2023-01-11T02:23:07.656Z,8.92
2023-01-11T02:26:23.483Z,8.94
2023-01-11T02:29:28.280Z,8.97
2023-01-11T02:32:07.045Z,8.99
2023-01-11T02:34:45.323Z,8.94
2023-01-11T02:37:26.195Z,8.96
2023-01-11T02:40:10.871Z,8.98
2023-01-11T02:42:57.158Z,8.97
2023-01-11T02:45:47.198Z,9.04
2023-01-11T02:48:36.663Z,9.05
2023-01-11T02:51:12.485Z,9.07
2023-01-11T02:53:57.980Z,8.99
2023-01-11T02:56:32.307Z,9.00
2023-01-11T02:59:00.920Z,9.07
2023-01-11T03:01:27.524Z,9.03
2023-01-11T03:03:54.540Z,9.06
2023-01-11T03:06:26.012Z,9.12
2023-01-11T03:09:12.236Z,9.15
2023-01-11T03:12:06.555Z,9.22
2023-01-11T03:14:46.172Z,9.22
2023-01-11T03:17:31.929Z,9.30
2023-01-11T03:20:08.847Z,9.33
2023-01-11T03:22:54.050Z,9.30
2023-01-11T03:25:28.724Z,9.32
2023-01-11T03:28:16.535Z,9.34
2023-01-11T03:31:02.303Z,9.39
2023-01-11T03:33:39.286Z,9.38
2023-01-11T03:36:23.299Z,9.48
2023-01-11T03:39:03.278Z,9.43
2023-01-11T03:41:34.962Z,9.52
2023-01-11T03:44:05.798Z,9.46
2023-01-11T03:46:36.981Z,9.42
2023-01-11T03:49:10.300Z,9.43
2023-01-11T03:51:43.403Z,9.40
2023-01-11T03:54:14.139Z,9.51
2023-01-11T03:57:05.004Z,9.53
2023-01-11T03:59:32.948Z,9.50
2023-01-11T04:02:00.084Z,9.53
2023-01-11T04:04:27.252Z,9.50
2023-01-11T04:06:53.946Z,9.49
2023-01-11T04:09:20.514Z,9.51
2023-01-11T04:11:47.028Z,9.47
2023-01-11T04:14:13.416Z,9.51
2023-01-11T04:16:39.873Z,9.61
2023-01-11T04:19:06.392Z,9.56
2023-01-11T04:21:33.091Z,9.52
2023-01-11T04:23:59.746Z,9.58
2023-01-11T04:26:26.146Z,9.52
2023-01-11T04:28:54.315Z,9.56
2023-01-11T04:31:21.291Z,9.60
2023-01-11T04:33:47.821Z,9.63
2023-01-11T04:36:14.321Z,9.62
2023-01-11T04:38:40.724Z,9.57
2023-01-11T04:41:26.116Z,9.59
2023-01-11T04:43:56.500Z,9.64
2023-01-11T04:46:23.930Z,9.70
2023-01-11T04:48:51.370Z,9.72
2023-01-11T04:51:17.895Z,9.65
2023-01-11T04:53:47.208Z,9.66
2023-01-11T04:56:13.736Z,9.70
2023-01-11T04:58:40.177Z,9.75
2023-01-11T05:01:12.077Z,9.82
2023-01-11T05:03:38.722Z,9.82
2023-01-11T05:06:05.910Z,9.83
2023-01-11T05:08:33.082Z,9.87
2023-01-11T05:11:02.157Z,9.86
2023-01-11T05:13:45.092Z,9.82
2023-01-11T05:16:17.616Z,9.89
2023-01-11T05:18:45.371Z,9.87
2023-01-11T05:21:13.558Z,9.89
2023-01-11T05:23:41.319Z,9.95
2023-01-11T05:26:10.749Z,10.01
2023-01-11T05:28:37.422Z,10.06
2023-01-11T05:31:03.918Z,10.08
2023-01-11T05:33:31.060Z,10.10
2023-01-11T05:36:02.266Z,10.15
2023-01-11T05:38:29.336Z,10.18
2023-01-11T05:40:58.057Z,10.19
2023-01-11T05:43:24.773Z,10.16
2023-01-11T05:45:51.530Z,10.19
2023-01-11T05:48:18.460Z,10.24
2023-01-11T05:50:49.391Z,10.27
2023-01-11T05:53:15.837Z,10.27
2023-01-11T05:55:53.370Z,10.36
2023-01-11T05:58:19.831Z,10.32
2023-01-11T06:00:51.006Z,10.30
2023-01-11T06:03:17.586Z,10.44
2023-01-11T06:05:45.938Z,10.46
2023-01-11T06:08:13.396Z,10.48
2023-01-11T06:10:39.991Z,10.50
2023-01-11T06:13:28.201Z,10.54
2023-01-11T06:16:00.205Z,10.54
2023-01-11T06:18:28.070Z,10.56
2023-01-11T06:20:55.285Z,10.59
2023-01-11T06:23:22.855Z,10.62
2023-01-11T06:25:49.617Z,10.61
2023-01-11T06:28:16.297Z,10.65
2023-01-11T06:30:43.113Z,10.64
2023-01-11T06:33:09.609Z,10.68
2023-01-11T06:35:40.915Z,10.76
2023-01-11T06:38:10.719Z,10.75
2023-01-11T06:40:38.964Z,10.79
2023-01-11T06:43:05.970Z,10.80
2023-01-11T06:45:32.755Z,10.82
2023-01-11T06:47:59.805Z,10.82
2023-01-11T06:50:26.762Z,10.89
2023-01-11T06:53:03.610Z,10.90
2023-01-11T06:55:30.719Z,10.88
2023-01-11T06:57:57.393Z,10.86
2023-01-11T07:00:24.754Z,10.91
2023-01-11T07:02:51.177Z,10.91
2023-01-11T07:05:19.344Z,10.93
2023-01-11T07:07:46.249Z,10.95
2023-01-11T07:10:15.863Z,11.03
2023-01-11T07:12:42.658Z,11.05
2023-01-11T07:15:10.458Z,11.07
2023-01-11T07:17:37.536Z,11.08
2023-01-11T07:20:05.225Z,11.03
2023-01-11T07:22:35.326Z,11.13
2023-01-11T07:25:02.774Z,11.13
2023-01-11T07:27:29.219Z,11.11
2023-01-11T07:29:55.761Z,11.16
2023-01-11T07:32:22.248Z,11.18
2023-01-11T07:34:48.866Z,11.06
2023-01-11T07:37:29.387Z,11.20
2023-01-11T07:39:56.343Z,11.24
2023-01-11T07:42:41.220Z,11.18
2023-01-11T07:45:08.206Z,11.31
2023-01-11T07:47:34.646Z,11.23
2023-01-11T07:50:01.080Z,11.31
2023-01-11T07:52:27.499Z,11.32
2023-01-11T07:54:53.971Z,11.38
2023-01-11T07:57:20.375Z,11.37
2023-01-11T07:59:46.780Z,11.39
2023-01-11T08:02:13.232Z,11.39
2023-01-11T08:04:39.628Z,11.45
2023-01-11T08:07:06.186Z,11.48
2023-01-11T08:09:32.647Z,11.45
2023-01-11T08:12:17.664Z,11.53
2023-01-11T08:14:44.140Z,11.46
2023-01-11T08:17:15.827Z,11.54
2023-01-11T08:19:43.257Z,11.56
2023-01-11T08:22:10.445Z,11.56
2023-01-11T08:24:37.219Z,11.58
2023-01-11T08:27:05.205Z,11.51
2023-01-11T08:29:32.429Z,11.47
2023-01-11T08:31:59.465Z,11.57
2023-01-11T08:34:27.636Z,11.61
2023-01-11T08:36:54.134Z,11.61
2023-01-11T08:39:20.652Z,11.58
2023-01-11T08:41:47.226Z,11.66
2023-01-11T08:44:15.055Z,11.63
2023-01-11T08:46:41.595Z,11.63
2023-01-11T08:49:12.319Z,11.61
2023-01-11T08:51:42.248Z,11.69
2023-01-11T08:54:14.069Z,11.72
2023-01-11T08:56:41.007Z,11.68
2023-01-11T08:59:07.409Z,11.74
2023-01-11T09:01:33.882Z,11.76
2023-01-11T09:04:00.358Z,11.77
2023-01-11T09:06:27.074Z,11.79
2023-01-11T09:08:53.636Z,11.80
2023-01-11T09:11:40.407Z,11.82
2023-01-11T09:14:07.194Z,11.81
2023-01-11T09:16:33.910Z,11.79
2023-01-11T09:19:00.392Z,11.83
2023-01-11T09:21:27.193Z,11.80
2023-01-11T09:23:53.671Z,11.79
2023-01-11T09:26:20.145Z,11.82
2023-01-11T09:28:46.647Z,11.82
2023-01-11T09:31:13.156Z,11.83
2023-01-11T09:33:39.725Z,11.78
2023-01-11T09:36:07.495Z,11.77
2023-01-11T09:38:34.116Z,11.87
2023-01-11T09:41:23.133Z,11.85
2023-01-11T09:44:20.262Z,11.89
2023-01-11T09:46:56.065Z,11.83
2023-01-11T09:49:28.134Z,11.84
2023-01-11T09:52:23.974Z,11.89
2023-01-11T09:54:51.328Z,11.84
2023-01-11T09:57:37.551Z,11.87
2023-01-11T10:00:12.721Z,11.86
2023-01-11T10:03:05.362Z,11.88
2023-01-11T10:05:46.036Z,11.87
2023-01-11T10:18:26.523Z,11.90
2023-01-11T10:18:28.361Z,11.91
2023-01-11T10:21:13.292Z,11.90
2023-01-11T10:24:03.024Z,11.92
2023-01-11T10:26:37.379Z,11.94
2023-01-11T10:29:53.454Z,11.98
2023-01-11T10:32:55.703Z,12.01
2023-01-11T10:36:02.388Z,12.03
2023-01-11T10:38:47.466Z,12.01
2023-01-11T10:41:26.432Z,11.98
2023-01-11T10:44:10.510Z,11.96
2023-01-11T10:46:43.411Z,11.95
2023-01-11T10:49:25.785Z,11.97
2023-01-11T10:51:55.654Z,11.95
2023-01-11T10:54:33.203Z,11.96
2023-01-11T10:57:02.759Z,11.94
2023-01-11T10:59:37.817Z,11.96
2023-01-11T11:02:16.535Z,11.98
2023-01-11T11:05:07.712Z,12.00
2023-01-11T11:07:40.265Z,11.96
2023-01-11T11:10:18.943Z,11.95
2023-01-11T11:13:06.701Z,11.99
2023-01-11T11:15:56.429Z,11.95
2023-01-11T11:18:23.649Z,11.95
2023-01-11T11:20:50.453Z,11.92
2023-01-11T11:23:21.537Z,11.92
2023-01-11T11:25:57.403Z,11.92
2023-01-11T11:28:30.982Z,11.91
2023-01-11T11:31:00.520Z,11.90
2023-01-11T11:33:33.920Z,11.91
2023-01-11T11:36:12.343Z,11.87
2023-01-11T11:38:59.941Z,11.83
2023-01-11T11:41:26.374Z,11.81
2023-01-11T11:44:14.508Z,11.82
2023-01-11T11:46:41.115Z,11.78
2023-01-11T11:49:12.803Z,11.83
2023-01-11T11:51:41.146Z,11.80
2023-01-11T11:54:30.237Z,11.85
2023-01-11T11:56:59.165Z,11.85
2023-01-11T11:59:29.868Z,11.87
2023-01-11T12:02:03.464Z,11.89
2023-01-11T12:04:57.612Z,11.95
2023-01-11T12:07:38.076Z,11.83
2023-01-11T12:10:13.434Z,11.90
2023-01-11T12:12:54.977Z,11.92
2023-01-11T12:15:25.541Z,11.89
2023-01-11T12:17:52.496Z,11.87
2023-01-11T12:20:21.609Z,11.87
2023-01-11T12:23:07.179Z,11.83
2023-01-11T12:25:40.560Z,11.84
2023-01-11T12:28:52.072Z,11.86
2023-01-11T12:31:40.321Z,11.86
2023-01-11T12:34:25.448Z,11.86
2023-01-11T12:37:02.495Z,11.82
2023-01-11T12:39:58.117Z,11.85
2023-01-11T12:42:49.545Z,11.87
2023-01-11T12:45:40.141Z,11.82
2023-01-11T12:48:12.627Z,11.85
2023-01-11T12:51:09.276Z,11.89
2023-01-11T12:54:09.801Z,11.90
2023-01-11T12:56:51.159Z,11.91
2023-01-11T12:59:28.576Z,11.91
2023-01-11T13:02:28.854Z,11.94
2023-01-11T13:05:13.842Z,12.02
2023-01-11T13:08:03.452Z,11.95
2023-01-11T13:10:39.224Z,11.92
2023-01-11T13:13:14.806Z,11.97
2023-01-11T13:16:14.191Z,12.02
2023-01-11T13:19:09.985Z,12.10
2023-01-11T13:21:44.738Z,12.16
2023-01-11T13:24:16.414Z,12.31
2023-01-11T13:26:45.764Z,12.49
2023-01-11T13:29:29.161Z,12.76
2023-01-11T13:31:59.437Z,12.98
2023-01-11T13:34:38.563Z,13.30
2023-01-11T13:37:15.455Z,13.39
2023-01-11T13:39:47.585Z,13.51
2023-01-11T13:42:38.473Z,13.63
2023-01-11T13:45:26.714Z,13.71
2023-01-11T13:48:01.750Z,13.68
2023-01-11T13:50:32.797Z,13.71
2023-01-11T13:53:11.449Z,13.69
2023-01-11T13:55:40.439Z,13.60
2023-01-11T13:58:16.392Z,13.53
2023-01-11T14:00:56.746Z,13.43
2023-01-11T14:03:41.657Z,13.38
2023-01-11T14:06:23.155Z,13.30
2023-01-11T14:08:52.181Z,13.19
2023-01-11T14:11:24.447Z,13.11
2023-01-11T14:14:17.763Z,13.06
2023-01-11T14:16:56.541Z,12.99
2023-01-11T14:19:32.213Z,12.92
2023-01-11T14:22:31.047Z,12.95
2023-01-11T14:25:00.797Z,12.90
2023-01-11T14:27:33.296Z,12.87
2023-01-11T14:30:11.555Z,12.83
2023-01-11T14:32:56.669Z,12.75
2023-01-11T14:35:25.910Z,12.64
2023-01-11T14:37:55.478Z,12.51
2023-01-11T14:40:33.666Z,12.42
2023-01-11T14:43:25.923Z,12.30
2023-01-11T14:46:24.130Z,12.19
2023-01-11T14:49:10.737Z,12.11
2023-01-11T14:52:03.236Z,11.99
2023-01-11T14:54:40.116Z,11.92
2023-01-11T14:57:06.577Z,11.82
2023-01-11T14:59:40.335Z,11.72
2023-01-11T15:02:23.129Z,11.67
2023-01-11T15:04:52.556Z,11.59
2023-01-11T15:07:35.277Z,11.48
2023-01-11T15:10:04.660Z,11.37
2023-01-11T15:12:39.327Z,11.31
2023-01-11T15:15:54.795Z,11.17
2023-01-11T15:18:26.760Z,11.10
2023-01-11T15:21:06.186Z,11.06
2023-01-11T15:23:38.298Z,10.99
2023-01-11T15:26:09.432Z,10.93
2023-01-11T15:28:50.429Z,10.89
2023-01-11T15:31:39.101Z,10.81
2023-01-11T15:34:28.840Z,10.77
2023-01-11T15:37:02.246Z,10.69
2023-01-11T15:39:37.759Z,10.63
2023-01-11T15:42:16.651Z,10.53
2023-01-11T15:44:55.038Z,10.50
2023-01-11T15:47:36.495Z,10.42
2023-01-11T15:50:06.255Z,10.38
2023-01-11T15:52:32.629Z,10.33
2023-01-11T15:55:25.620Z,10.25
2023-01-11T15:57:54.978Z,10.23
2023-01-11T16:00:36.752Z,10.17
2023-01-11T16:03:17.385Z,10.13
2023-01-11T16:06:24.026Z,10.09
2023-01-11T16:09:03.773Z,10.04
2023-01-11T16:11:51.253Z,10.01
2023-01-11T16:14:56.621Z,9.97
2023-01-11T16:17:24.878Z,9.91
2023-01-11T16:19:56.747Z,9.82
2023-01-11T16:22:26.402Z,9.86
2023-01-11T16:24:56.915Z,9.78
2023-01-11T16:27:29.554Z,9.82
2023-01-11T16:29:56.662Z,9.80
2023-01-11T16:32:32.484Z,9.78
2023-01-11T16:35:15.189Z,9.79
2023-01-11T16:37:49.425Z,9.80
2023-01-11T16:40:29.892Z,9.75
2023-01-11T16:43:05.601Z,9.74
2023-01-11T16:45:47.086Z,9.73
2023-01-11T16:48:24.905Z,9.73
2023-01-11T16:50:58.039Z,9.73
2023-01-11T16:53:26.633Z,9.64
2023-01-11T16:56:05.640Z,9.68
2023-01-11T16:58:35.104Z,9.66
2023-01-11T17:01:03.392Z,9.62
2023-01-11T17:03:35.689Z,9.58
2023-01-11T17:06:15.218Z,9.58
2023-01-11T17:08:47.862Z,9.51
2023-01-11T17:11:41.600Z,9.45
2023-01-11T17:14:41.928Z,9.44
2023-01-11T17:17:10.116Z,9.47
2023-01-11T17:19:43.283Z,9.39
2023-01-11T17:22:17.772Z,9.38
2023-01-11T17:24:53.552Z,9.39
2023-01-11T17:27:25.712Z,9.37
2023-01-11T17:29:54.878Z,9.40
2023-01-11T17:32:29.613Z,9.37
2023-01-11T17:34:56.567Z,9.42
2023-01-11T17:37:24.190Z,9.43
2023-01-11T17:39:54.930Z,9.42
2023-01-11T17:42:41.235Z,9.48
2023-01-11T17:45:20.983Z,9.48
2023-01-11T17:47:53.686Z,9.50
2023-01-11T17:50:39.666Z,9.49
2023-01-11T17:53:16.029Z,9.46
2023-01-11T17:55:53.031Z,9.43
2023-01-11T17:58:28.711Z,9.41
2023-01-11T18:01:04.440Z,9.43
2023-01-11T18:03:39.023Z,9.34
2023-01-11T18:06:14.246Z,9.38
2023-01-11T18:08:46.866Z,9.36
2023-01-11T18:11:28.738Z,9.30
2023-01-11T18:13:59.755Z,9.28
2023-01-11T18:16:26.848Z,9.17
2023-01-11T18:18:54.977Z,9.23
2023-01-11T18:21:39.987Z,9.24
2023-01-11T18:24:09.696Z,9.24
2023-01-11T18:26:45.549Z,9.24
2023-01-11T18:29:42.291Z,9.23
2023-01-11T18:32:10.954Z,9.17
2023-01-11T18:34:37.408Z,9.17
2023-01-11T18:37:07.687Z,9.26
2023-01-11T18:39:34.599Z,9.38
2023-01-11T18:42:08.559Z,9.31
2023-01-11T18:44:43.755Z,9.36
2023-01-11T18:47:19.468Z,9.40
2023-01-11T18:49:46.353Z,9.39
2023-01-11T18:52:13.294Z,9.39
2023-01-11T18:54:41.167Z,9.44
2023-01-11T18:57:08.282Z,9.41
2023-01-11T18:59:35.181Z,9.42
2023-01-11T19:02:16.921Z,9.42
2023-01-11T19:04:43.975Z,9.37
2023-01-11T19:07:11.448Z,9.39
2023-01-11T19:09:37.852Z,9.39
2023-01-11T19:12:04.444Z,9.37
2023-01-11T19:14:30.859Z,9.38
2023-01-11T19:16:57.298Z,9.51
2023-01-11T19:19:23.737Z,9.53
2023-01-11T19:21:50.520Z,9.53
2023-01-11T19:24:16.920Z,9.54
2023-01-11T19:26:43.395Z,9.60
2023-01-11T19:29:09.894Z,9.53
2023-01-11T19:31:36.356Z,9.52
2023-01-11T19:34:02.808Z,9.45
2023-01-11T19:36:32.093Z,9.44
2023-01-11T19:38:58.463Z,9.45
2023-01-11T19:41:24.851Z,9.47
2023-01-11T19:43:51.344Z,9.41
2023-01-11T19:46:30.609Z,9.39
2023-01-11T19:48:58.274Z,9.37
2023-01-11T19:51:24.684Z,9.30
2023-01-11T19:53:53.841Z,9.33
2023-01-11T19:56:20.278Z,9.23
2023-01-11T19:58:46.684Z,9.25
2023-01-11T20:01:13.351Z,9.23
2023-01-11T20:03:41.543Z,9.18
2023-01-11T20:06:08.854Z,9.18
2023-01-11T20:08:38.483Z,9.15
2023-01-11T20:11:09.551Z,9.15
2023-01-11T20:13:36.361Z,9.12
2023-01-11T20:16:10.774Z,9.10
2023-01-11T20:18:37.276Z,9.13
2023-01-11T20:21:04.247Z,9.11
2023-01-11T20:23:31.792Z,9.13
2023-01-11T20:25:59.483Z,9.12
2023-01-11T20:28:26.453Z,9.11
2023-01-11T20:30:53.751Z,9.11
2023-01-11T20:33:20.615Z,9.10
2023-01-11T20:35:48.587Z,9.08
2023-01-11T20:38:15.152Z,9.02
2023-01-11T20:40:42.182Z,9.03
2023-01-11T20:43:10.675Z,9.00
2023-01-11T20:45:39.837Z,8.96
2023-01-11T20:48:07.300Z,8.97
2023-01-11T20:50:35.511Z,8.94
2023-01-11T20:53:02.980Z,8.92
2023-01-11T20:55:29.519Z,8.88
2023-01-11T20:57:56.069Z,8.85
2023-01-11T21:00:22.587Z,8.86
2023-01-11T21:02:50.421Z,8.89
2023-01-11T21:05:17.040Z,8.90
2023-01-11T21:07:43.479Z,8.96
2023-01-11T21:10:10.468Z,8.95
2023-01-11T21:15:03.709Z,8.99
2023-01-11T21:17:30.184Z,8.95
2023-01-11T21:19:56.585Z,9.04
2023-01-11T21:22:23.022Z,9.02
2023-01-11T21:24:49.506Z,9.03
2023-01-11T21:27:16.009Z,9.07
2023-01-11T21:29:42.448Z,9.05
2023-01-11T21:32:08.954Z,9.14
2023-01-11T21:34:35.408Z,9.13
2023-01-11T21:37:01.806Z,9.14
2023-01-11T21:39:28.273Z,9.11
2023-01-11T21:42:01.175Z,9.14
2023-01-11T21:44:33.405Z,9.15
2023-01-11T21:47:01.948Z,9.15
2023-01-11T21:49:28.444Z,9.18
2023-01-11T21:51:54.851Z,9.22
2023-01-11T21:54:21.470Z,9.24
2023-01-11T21:56:49.138Z,9.25
2023-01-11T21:59:16.474Z,9.23
2023-01-11T22:01:45.355Z,9.30
2023-01-11T22:04:14.706Z,9.38
2023-01-11T22:06:43.729Z,9.40
2023-01-11T22:09:11.646Z,9.38
2023-01-11T22:11:39.237Z,9.36
2023-01-11T22:14:06.733Z,9.49
2023-01-11T22:16:34.564Z,9.50
2023-01-11T22:19:02.176Z,9.58
2023-01-11T22:21:29.294Z,9.61
2023-01-11T22:23:57.741Z,9.63
2023-01-11T22:26:25.445Z,9.67
2023-01-11T22:29:12.694Z,9.73
2023-01-11T22:31:45.234Z,9.72
2023-01-11T22:34:13.562Z,9.75
2023-01-11T22:36:40.756Z,9.74
2023-01-11T22:39:07.510Z,9.76
2023-01-11T22:41:33.989Z,9.69
2023-01-11T22:44:00.504Z,9.68
2023-01-11T22:46:27.974Z,9.59
2023-01-11T22:48:54.459Z,9.51
2023-01-11T22:51:23.522Z,9.52
2023-01-11T22:53:51.618Z,9.51
2023-01-11T22:56:19.882Z,9.52
2023-01-11T22:58:52.236Z,9.50
2023-01-11T23:01:22.729Z,9.49
2023-01-11T23:03:49.996Z,9.45
2023-01-11T23:06:22.743Z,9.51
2023-01-11T23:08:49.213Z,9.51
2023-01-11T23:11:37.774Z,9.50
2023-01-11T23:14:05.714Z,9.45
2023-01-11T23:16:32.861Z,9.43
2023-01-11T23:19:00.142Z,9.45
2023-01-11T23:21:27.696Z,9.47
2023-01-11T23:23:54.309Z,9.44
2023-01-11T23:26:21.438Z,9.42
2023-01-11T23:28:49.763Z,9.43
2023-01-11T23:31:19.640Z,9.44
2023-01-11T23:33:48.690Z,9.39
2023-01-11T23:36:17.148Z,9.38
2023-01-11T23:38:43.566Z,9.38
2023-01-11T23:41:30.955Z,9.40
2023-01-11T23:43:57.431Z,9.37
2023-01-11T23:46:43.372Z,9.41
2023-01-11T23:49:11.142Z,9.40
2023-01-11T23:51:38.105Z,9.43
2023-01-11T23:54:05.538Z,9.42
2023-01-11T23:56:33.355Z,9.45
2023-01-11T23:59:00.407Z,9.39
